createdAt,value
2018-07-10T00:02:36.304Z,20.85
2018-07-10T00:07:18.048Z,20.89
2018-07-10T00:10:10.557Z,20.83
2018-07-10T00:12:38.167Z,20.79
2018-07-10T00:15:05.731Z,20.83
2018-07-10T00:17:33.382Z,20.86
2018-07-10T00:20:01.080Z,20.90
2018-07-10T00:22:28.645Z,20.92
2018-07-10T00:24:56.285Z,20.93
2018-07-10T00:27:23.830Z,20.95
2018-07-10T00:29:51.442Z,20.97
2018-07-10T00:32:19.079Z,20.96
2018-07-10T00:34:46.661Z,20.97
2018-07-10T00:37:14.354Z,20.96
2018-07-10T00:39:42.061Z,20.99
2018-07-10T00:42:09.606Z,21.00
2018-07-10T00:44:37.130Z,20.99
2018-07-10T00:47:04.786Z,20.98
2018-07-10T00:49:32.418Z,20.96
2018-07-10T00:52:00.075Z,21.00
2018-07-10T00:54:27.689Z,20.99
2018-07-10T00:56:55.340Z,20.97
2018-07-10T00:59:23.036Z,20.96
2018-07-10T01:01:50.774Z,20.93
2018-07-10T01:04:18.317Z,20.88
2018-07-10T01:06:45.931Z,20.87
2018-07-10T01:09:14.458Z,20.85
2018-07-10T01:11:42.081Z,20.85
2018-07-10T01:14:09.734Z,20.81
2018-07-10T01:16:38.453Z,20.79
2018-07-10T01:19:13.402Z,20.72
2018-07-10T01:21:41.867Z,20.72
2018-07-10T01:24:09.531Z,20.68
2018-07-10T01:26:39.315Z,20.66
2018-07-10T01:29:15.842Z,20.65
2018-07-10T01:31:44.770Z,20.63
2018-07-10T01:34:13.273Z,20.62
2018-07-10T01:36:40.841Z,20.57
2018-07-10T01:39:08.535Z,20.56
2018-07-10T01:41:36.612Z,20.53
2018-07-10T01:44:04.402Z,20.51
2018-07-10T01:46:31.981Z,20.47
2018-07-10T01:48:59.708Z,20.38
2018-07-10T01:51:27.935Z,20.39
2018-07-10T01:53:55.527Z,20.33
2018-07-10T01:56:23.212Z,20.33
2018-07-10T01:58:50.855Z,20.30
2018-07-10T02:01:18.537Z,20.26
2018-07-10T02:03:46.186Z,20.22
2018-07-10T02:06:13.891Z,20.24
2018-07-10T02:08:41.562Z,20.22
2018-07-10T02:11:09.189Z,20.24
2018-07-10T02:13:36.919Z,20.23
2018-07-10T02:16:04.506Z,20.20
2018-07-10T02:18:32.180Z,20.19
2018-07-10T02:21:04.127Z,20.18
2018-07-10T02:23:36.402Z,20.16
2018-07-10T02:26:05.266Z,20.12
2018-07-10T02:28:32.883Z,20.10
2018-07-10T02:31:01.428Z,20.08
2018-07-10T02:33:29.195Z,20.12
2018-07-10T02:35:56.887Z,20.09
2018-07-10T02:38:25.548Z,20.07
2018-07-10T02:40:53.227Z,20.09
2018-07-10T02:43:20.854Z,20.07
2018-07-10T02:45:48.551Z,20.07
2018-07-10T02:48:16.237Z,20.10
2018-07-10T02:50:44.771Z,20.11
2018-07-10T02:53:12.454Z,20.08
2018-07-10T02:55:42.623Z,20.10
2018-07-10T02:58:10.332Z,20.11
2018-07-10T03:00:38.022Z,20.10
2018-07-10T03:03:05.695Z,20.17
2018-07-10T03:05:33.387Z,20.15
2018-07-10T03:08:01.087Z,20.12
2018-07-10T03:10:28.785Z,20.10
2018-07-10T03:12:56.466Z,20.12
2018-07-10T03:15:24.134Z,20.00
2018-07-10T03:17:52.494Z,19.94
2018-07-10T03:20:20.162Z,19.93
2018-07-10T03:22:47.868Z,19.95
2018-07-10T03:25:15.546Z,19.95
2018-07-10T03:27:43.222Z,19.92
2018-07-10T03:30:10.899Z,19.89
2018-07-10T03:32:38.567Z,19.90
2018-07-10T03:35:06.158Z,19.90
2018-07-10T03:37:33.830Z,19.91
2018-07-10T03:40:01.527Z,19.91
2018-07-10T03:42:29.166Z,19.91
2018-07-10T03:44:56.702Z,19.89
2018-07-10T03:47:25.767Z,19.88
2018-07-10T03:49:53.475Z,19.84
2018-07-10T03:52:26.840Z,19.80
2018-07-10T03:54:55.854Z,19.79
2018-07-10T03:57:24.066Z,19.63
2018-07-10T03:59:55.130Z,19.41
2018-07-10T04:02:23.894Z,19.26
2018-07-10T04:04:52.006Z,19.11
2018-07-10T04:07:19.694Z,18.93
2018-07-10T04:09:49.573Z,18.74
2018-07-10T04:12:17.238Z,18.62
2018-07-10T04:14:44.919Z,18.54
2018-07-10T04:17:13.051Z,18.52
2018-07-10T04:19:40.727Z,18.51
2018-07-10T04:22:08.437Z,18.46
2018-07-10T04:24:38.570Z,18.49
2018-07-10T04:27:15.595Z,18.51
2018-07-10T04:29:56.519Z,18.48
2018-07-10T04:32:24.218Z,18.47
2018-07-10T04:34:51.905Z,18.44
2018-07-10T04:37:19.608Z,18.43
2018-07-10T04:39:47.272Z,18.44
2018-07-10T04:42:32.518Z,18.36
2018-07-10T04:45:02.427Z,18.34
2018-07-10T04:47:37.730Z,18.30
2018-07-10T04:50:15.817Z,18.32
2018-07-10T04:52:47.764Z,18.29
2018-07-10T04:55:15.751Z,18.35
2018-07-10T04:58:49.157Z,18.36
2018-07-10T05:01:16.818Z,18.26
2018-07-10T05:03:44.540Z,18.24
2018-07-10T05:06:12.692Z,18.26
2018-07-10T05:08:41.731Z,18.25
2018-07-10T05:11:09.397Z,18.26
2018-07-10T05:13:37.064Z,18.27
2018-07-10T05:16:05.629Z,18.27
2018-07-10T05:18:34.203Z,18.23
2018-07-10T05:21:14.179Z,18.26
2018-07-10T05:23:42.102Z,18.23
2018-07-10T05:26:14.669Z,18.21
2018-07-10T05:28:43.799Z,18.23
2018-07-10T05:31:11.547Z,18.16
2018-07-10T05:33:42.112Z,18.19
2018-07-10T05:36:09.790Z,18.21
2018-07-10T05:38:41.425Z,18.24
2018-07-10T05:41:11.598Z,18.27
2018-07-10T05:43:44.062Z,18.27
2018-07-10T05:46:11.671Z,18.28
2018-07-10T05:48:40.795Z,18.29
2018-07-10T05:51:08.472Z,18.33
2018-07-10T05:53:36.154Z,18.26
2018-07-10T05:56:03.842Z,18.25
2018-07-10T05:58:31.992Z,18.22
2018-07-10T06:00:59.582Z,18.19
2018-07-10T06:03:27.225Z,18.14
2018-07-10T06:05:56.048Z,18.09
2018-07-10T06:08:23.771Z,18.12
2018-07-10T06:10:51.461Z,18.14
2018-07-10T06:13:19.162Z,18.21
2018-07-10T06:15:46.863Z,18.20
2018-07-10T06:18:14.579Z,18.22
2018-07-10T06:20:42.278Z,18.22
2018-07-10T06:23:10.048Z,18.22
2018-07-10T06:25:37.705Z,18.24
2018-07-10T06:28:08.826Z,18.23
2018-07-10T06:30:37.930Z,18.23
2018-07-10T06:33:10.770Z,18.22
2018-07-10T06:35:48.602Z,18.21
2018-07-10T06:38:17.326Z,18.23
2018-07-10T06:40:49.043Z,18.35
2018-07-10T06:43:28.787Z,18.28
2018-07-10T06:45:56.453Z,18.32
2018-07-10T06:48:24.145Z,18.33
2018-07-10T06:50:51.822Z,18.31
2018-07-10T06:53:22.714Z,18.36
2018-07-10T06:55:57.142Z,18.35
2018-07-10T06:58:25.214Z,18.38
2018-07-10T07:00:53.795Z,18.44
2018-07-10T07:03:23.140Z,18.49
2018-07-10T07:05:50.854Z,18.61
2018-07-10T07:08:19.234Z,18.73
2018-07-10T07:10:46.908Z,18.69
2018-07-10T07:13:14.594Z,18.69
2018-07-10T07:15:42.302Z,18.67
2018-07-10T07:18:09.953Z,18.67
2018-07-10T07:20:37.620Z,18.67
2018-07-10T07:23:05.263Z,18.76
2018-07-10T07:25:32.890Z,18.74
2018-07-10T07:28:00.551Z,18.67
2018-07-10T07:30:28.593Z,18.60
2018-07-10T07:32:56.526Z,18.60
2018-07-10T07:35:24.114Z,18.50
2018-07-10T07:37:52.123Z,18.50
2018-07-10T07:40:19.782Z,18.52
2018-07-10T07:42:47.500Z,18.50
2018-07-10T07:45:15.131Z,18.49
2018-07-10T07:47:42.962Z,18.40
2018-07-10T07:50:10.589Z,18.33
2018-07-10T07:52:38.326Z,18.26
2018-07-10T07:55:05.991Z,18.25
2018-07-10T07:57:33.559Z,18.30
2018-07-10T08:00:01.240Z,18.31
2018-07-10T08:02:29.137Z,18.30
2018-07-10T08:04:57.038Z,18.25
2018-07-10T08:07:25.739Z,18.17
2018-07-10T08:09:54.720Z,18.02
2018-07-10T08:12:23.057Z,17.92
2018-07-10T08:14:51.091Z,17.85
2018-07-10T08:17:18.717Z,17.86
2018-07-10T08:19:46.827Z,17.85
2018-07-10T08:22:14.687Z,17.78
2018-07-10T08:24:42.399Z,17.77
2018-07-10T08:27:10.110Z,17.78
2018-07-10T08:29:38.182Z,17.75
2018-07-10T08:32:05.858Z,17.78
2018-07-10T08:34:33.557Z,17.76
2018-07-10T08:37:01.204Z,17.78
2018-07-10T08:39:28.916Z,17.78
2018-07-10T08:41:56.479Z,17.82
2018-07-10T08:44:24.154Z,17.86
2018-07-10T08:46:53.981Z,17.92
2018-07-10T08:49:23.639Z,18.04
2018-07-10T08:51:52.391Z,18.18
2018-07-10T08:54:22.259Z,18.22
2018-07-10T08:56:50.446Z,18.45
2018-07-10T08:59:18.141Z,18.56
2018-07-10T09:01:47.199Z,18.45
2018-07-10T09:04:15.546Z,18.56
2018-07-10T09:06:43.166Z,18.52
2018-07-10T09:09:10.830Z,18.59
2018-07-10T09:11:38.470Z,18.55
2018-07-10T09:14:06.113Z,18.47
2018-07-10T09:16:33.891Z,18.45
2018-07-10T09:19:01.592Z,18.43
2018-07-10T09:21:29.317Z,18.38
2018-07-10T09:23:57.095Z,18.33
2018-07-10T09:26:24.811Z,18.45
2018-07-10T09:28:52.590Z,18.52
2018-07-10T09:31:20.282Z,18.41
2018-07-10T09:33:47.961Z,18.48
2018-07-10T09:36:16.021Z,18.54
2018-07-10T09:38:43.717Z,18.63
2018-07-10T09:41:11.380Z,18.83
2018-07-10T09:43:39.104Z,19.07
2018-07-10T09:46:06.821Z,19.08
2018-07-10T09:48:34.502Z,19.08
2018-07-10T09:51:02.260Z,19.13
2018-07-10T09:53:30.119Z,19.12
2018-07-10T09:55:58.638Z,19.00
2018-07-10T09:58:26.346Z,18.88
2018-07-10T10:01:00.709Z,18.85
2018-07-10T10:03:28.385Z,18.84
2018-07-10T10:05:56.561Z,18.87
2018-07-10T10:08:24.281Z,18.88
2018-07-10T10:10:51.886Z,18.89
2018-07-10T10:13:19.578Z,18.85
2018-07-10T10:15:47.278Z,18.83
2018-07-10T10:18:14.971Z,18.86
2018-07-10T10:20:43.225Z,18.97
2018-07-10T10:23:11.412Z,18.91
2018-07-10T10:25:42.908Z,18.76
2018-07-10T10:28:10.578Z,18.71
2018-07-10T10:30:39.432Z,18.68
2018-07-10T10:33:07.618Z,18.63
2018-07-10T10:35:35.374Z,18.60
2018-07-10T10:38:03.831Z,18.60
2018-07-10T10:40:34.882Z,18.56
2018-07-10T10:43:05.619Z,18.59
2018-07-10T10:45:35.106Z,18.57
2018-07-10T10:48:03.212Z,18.66
2018-07-10T10:50:30.950Z,18.68
2018-07-10T10:52:58.902Z,18.71
2018-07-10T10:55:26.593Z,18.71
2018-07-10T10:57:54.683Z,18.71
2018-07-10T11:00:22.357Z,18.76
2018-07-10T11:02:50.183Z,18.70
2018-07-10T11:05:17.867Z,18.73
2018-07-10T11:07:45.578Z,18.84
2018-07-10T11:10:13.246Z,18.83
2018-07-10T11:12:40.923Z,18.78
2018-07-10T11:15:08.667Z,18.83
2018-07-10T11:17:44.834Z,18.89
2018-07-10T11:20:53.021Z,18.96
2018-07-10T11:23:29.922Z,18.81
2018-07-10T11:26:05.206Z,18.78
2018-07-10T11:28:32.888Z,18.87
2018-07-10T11:31:00.562Z,18.92
2018-07-10T11:33:28.247Z,18.97
2018-07-10T11:35:55.910Z,19.01
2018-07-10T11:38:23.587Z,19.08
2018-07-10T11:40:51.203Z,19.21
2018-07-10T11:43:18.914Z,19.26
2018-07-10T11:45:46.533Z,19.25
2018-07-10T11:48:14.254Z,19.27
2018-07-10T11:50:41.861Z,19.38
2018-07-10T11:53:09.582Z,19.50
2018-07-10T11:55:37.271Z,19.58
2018-07-10T11:58:06.274Z,19.52
2018-07-10T12:00:34.040Z,19.57
2018-07-10T12:03:04.573Z,19.61
2018-07-10T12:05:34.702Z,19.70
2018-07-10T12:08:02.438Z,19.66
2018-07-10T12:10:31.451Z,19.52
2018-07-10T12:12:59.051Z,19.56
2018-07-10T12:15:26.702Z,19.70
2018-07-10T12:17:55.479Z,19.76
2018-07-10T12:20:28.571Z,19.76
2018-07-10T12:22:56.506Z,19.78
2018-07-10T12:25:24.191Z,19.77
2018-07-10T12:27:51.929Z,19.75
2018-07-10T12:30:19.878Z,19.67
2018-07-10T12:32:47.498Z,19.57
2018-07-10T12:35:15.214Z,19.52
2018-07-10T12:37:42.817Z,19.57
2018-07-10T12:40:10.738Z,19.61
2018-07-10T12:42:39.566Z,19.68
2018-07-10T12:45:08.010Z,19.69
2018-07-10T12:47:35.730Z,19.65
2018-07-10T12:50:03.397Z,19.66
2018-07-10T12:52:31.080Z,19.57
2018-07-10T12:55:00.618Z,19.54
2018-07-10T12:57:34.095Z,19.52
2018-07-10T13:00:02.146Z,19.50
2018-07-10T13:02:29.857Z,19.56
2018-07-10T13:04:57.683Z,19.69
2018-07-10T13:07:25.384Z,19.65
2018-07-10T13:09:53.055Z,19.68
2018-07-10T13:12:20.814Z,19.74
2018-07-10T13:14:48.480Z,19.80
2018-07-10T13:17:16.443Z,19.80
2018-07-10T13:19:44.128Z,19.78
2018-07-10T13:22:11.822Z,19.78
2018-07-10T13:24:39.545Z,19.73
2018-07-10T13:27:07.283Z,19.75
2018-07-10T13:29:34.879Z,19.75
2018-07-10T13:32:02.562Z,19.77
2018-07-10T13:34:30.313Z,19.75
2018-07-10T13:36:57.987Z,19.76
2018-07-10T13:39:25.953Z,19.73
2018-07-10T13:41:53.620Z,19.71
2018-07-10T13:44:21.342Z,19.65
2018-07-10T13:46:49.007Z,19.65
2018-07-10T13:49:16.651Z,19.74
2018-07-10T13:51:44.918Z,19.77
2018-07-10T13:54:12.522Z,19.81
2018-07-10T13:56:40.194Z,19.75
2018-07-10T13:59:07.846Z,19.71
2018-07-10T14:01:36.560Z,19.72
2018-07-10T14:04:04.243Z,19.77
2018-07-10T14:06:31.883Z,19.83
2018-07-10T14:08:59.567Z,19.77
2018-07-10T14:11:27.222Z,19.75
2018-07-10T14:13:55.159Z,19.75
2018-07-10T14:16:22.843Z,19.80
2018-07-10T14:18:52.147Z,19.86
2018-07-10T14:21:20.998Z,19.99
2018-07-10T14:23:48.647Z,20.14
2018-07-10T14:26:16.355Z,20.26
2018-07-10T14:28:44.057Z,20.47
2018-07-10T14:31:11.734Z,20.60
2018-07-10T14:33:39.421Z,20.64
2018-07-10T14:36:07.149Z,20.75
2018-07-10T14:38:34.847Z,21.48
2018-07-10T14:41:05.812Z,21.85
2018-07-10T14:43:34.448Z,21.63
2018-07-10T14:46:15.763Z,21.44
2018-07-10T14:48:53.567Z,21.16
2018-07-10T14:51:53.002Z,20.96
2018-07-10T14:54:20.666Z,20.85
2018-07-10T14:56:48.446Z,20.92
2018-07-10T14:59:16.137Z,21.04
2018-07-10T15:01:44.086Z,21.18
2018-07-10T15:04:11.726Z,21.45
2018-07-10T15:06:39.407Z,22.10
2018-07-10T15:09:08.292Z,22.36
2018-07-10T15:11:35.942Z,23.01
2018-07-10T15:14:07.606Z,23.73
2018-07-10T15:16:40.835Z,23.93
2018-07-10T15:19:08.382Z,24.07
2018-07-10T15:21:36.059Z,23.95
2018-07-10T15:24:04.817Z,24.19
2018-07-10T15:26:33.175Z,24.34
2018-07-10T15:29:00.862Z,24.23
2018-07-10T15:31:28.738Z,23.53
2018-07-10T15:33:56.466Z,22.99
2018-07-10T15:36:24.059Z,22.70
2018-07-10T15:38:51.734Z,22.61
2018-07-10T15:41:19.887Z,22.70
2018-07-10T15:43:47.726Z,22.88
2018-07-10T15:46:15.446Z,23.00
2018-07-10T15:48:43.151Z,23.08
2018-07-10T15:51:10.782Z,23.02
2018-07-10T15:53:38.480Z,22.77
2018-07-10T15:56:06.266Z,22.60
2018-07-10T15:58:34.246Z,22.44
2018-07-10T16:01:02.147Z,22.33
2018-07-10T16:03:29.818Z,22.09
2018-07-10T16:05:57.482Z,21.89
2018-07-10T16:08:25.138Z,22.01
2018-07-10T16:10:57.126Z,22.12
2018-07-10T16:13:26.555Z,22.28
2018-07-10T16:15:56.335Z,22.36
2018-07-10T16:18:25.635Z,22.32
2018-07-10T16:20:57.928Z,22.20
2018-07-10T16:23:26.082Z,22.15
2018-07-10T16:26:05.156Z,21.99
2018-07-10T16:28:33.794Z,21.87
2018-07-10T16:31:02.342Z,21.86
2018-07-10T16:33:32.650Z,21.86
2018-07-10T16:36:01.275Z,21.78
2018-07-10T16:38:29.115Z,21.74
2018-07-10T16:41:02.520Z,21.71
2018-07-10T16:43:30.193Z,21.79
2018-07-10T16:45:59.570Z,21.77
2018-07-10T16:49:11.018Z,21.74
2018-07-10T16:51:48.387Z,21.78
2018-07-10T16:54:16.330Z,21.70
2018-07-10T16:56:43.933Z,21.63
2018-07-10T16:59:11.643Z,21.53
2018-07-10T17:01:40.017Z,21.47
2018-07-10T17:04:07.679Z,21.50
2018-07-10T17:06:35.366Z,21.36
2018-07-10T17:09:04.026Z,21.38
2018-07-10T17:11:31.733Z,21.35
2018-07-10T17:13:59.310Z,21.44
2018-07-10T17:16:26.975Z,21.49
2018-07-10T17:18:54.635Z,21.62
2018-07-10T17:21:22.319Z,21.74
2018-07-10T17:23:50.842Z,21.68
2018-07-10T17:26:19.496Z,21.59
2018-07-10T17:28:47.211Z,21.58
2018-07-10T17:31:14.886Z,21.57
2018-07-10T17:33:42.510Z,21.53
2018-07-10T17:36:10.145Z,21.47
2018-07-10T17:38:37.753Z,21.40
2018-07-10T17:41:07.973Z,21.33
2018-07-10T17:43:36.208Z,21.22
2018-07-10T17:46:03.883Z,21.11
2018-07-10T17:48:31.600Z,20.99
2018-07-10T17:50:59.277Z,20.85
2018-07-10T17:53:26.867Z,20.76
2018-07-10T17:55:54.617Z,20.63
2018-07-10T17:58:22.864Z,20.47
2018-07-10T18:00:50.495Z,20.34
2018-07-10T18:03:18.185Z,20.21
2018-07-10T18:05:45.851Z,20.07
2018-07-10T18:08:13.840Z,19.99
2018-07-10T18:10:41.432Z,19.86
2018-07-10T18:13:09.054Z,19.78
2018-07-10T18:15:36.678Z,19.69
2018-07-10T18:18:04.390Z,19.61
2018-07-10T18:20:32.055Z,19.54
2018-07-10T18:22:59.934Z,19.41
2018-07-10T18:25:27.506Z,19.34
2018-07-10T18:27:55.195Z,19.28
2018-07-10T18:30:22.925Z,19.22
2018-07-10T18:32:50.527Z,19.18
2018-07-10T18:35:18.378Z,19.09
2018-07-10T18:37:46.061Z,19.06
2018-07-10T18:40:13.678Z,18.99
2018-07-10T18:42:41.426Z,18.90
2018-07-10T18:45:09.109Z,18.84
2018-07-10T18:47:36.790Z,18.79
2018-07-10T18:50:04.640Z,18.71
2018-07-10T18:52:32.331Z,18.67
2018-07-10T18:55:00.834Z,18.59
2018-07-10T18:58:05.230Z,18.52
2018-07-10T19:02:08.862Z,18.45
2018-07-10T19:04:44.601Z,18.28
2018-07-10T19:07:12.338Z,18.22
2018-07-10T19:09:40.046Z,18.19
2018-07-10T19:12:10.106Z,18.19
2018-07-10T19:14:37.894Z,18.12
2018-07-10T19:17:10.998Z,18.07
2018-07-10T19:19:42.094Z,17.96
2018-07-10T19:22:10.839Z,17.93
2018-07-10T19:24:40.186Z,17.89
2018-07-10T19:27:07.892Z,17.81
2018-07-10T19:29:42.766Z,17.74
2018-07-10T19:32:10.460Z,17.66
2018-07-10T19:34:38.155Z,17.62
2018-07-10T19:37:05.950Z,17.55
2018-07-10T19:39:34.161Z,17.50
2018-07-10T19:42:01.854Z,17.44
2018-07-10T19:44:30.096Z,17.40
2018-07-10T19:46:57.767Z,17.36
2018-07-10T19:49:25.440Z,17.27
2018-07-10T19:51:53.098Z,17.23
2018-07-10T19:54:20.856Z,17.21
2018-07-10T19:56:48.587Z,17.15
2018-07-10T19:59:17.231Z,17.08
2018-07-10T20:01:50.512Z,17.05
2018-07-10T20:04:27.806Z,17.01
2018-07-10T20:07:01.567Z,16.99
2018-07-10T20:09:32.914Z,16.93
2018-07-10T20:12:07.967Z,16.90
2018-07-10T20:14:41.814Z,16.87
2018-07-10T20:17:11.650Z,16.84
2018-07-10T20:19:46.923Z,16.79
2018-07-10T20:22:23.539Z,16.75
2018-07-10T20:24:59.062Z,16.70
2018-07-10T20:27:38.141Z,16.64
2018-07-10T20:31:12.773Z,16.60
2018-07-10T20:35:51.890Z,16.43
2018-07-10T20:38:19.989Z,16.22
2018-07-10T20:40:47.908Z,16.17
2018-07-10T20:43:17.770Z,16.17
2018-07-10T20:45:47.612Z,16.19
2018-07-10T20:48:31.013Z,16.19
2018-07-10T20:51:04.327Z,16.21
2018-07-10T20:53:41.058Z,16.20
2018-07-10T20:56:33.664Z,16.18
2018-07-10T20:59:09.782Z,16.17
2018-07-10T21:01:38.446Z,16.13
2018-07-10T21:04:27.681Z,16.19
2018-07-10T21:07:03.076Z,16.13
2018-07-10T21:10:37.374Z,16.10
2018-07-10T21:13:10.665Z,16.01
2018-07-10T21:15:46.830Z,15.96
2018-07-10T21:18:26.671Z,15.91
2018-07-10T21:21:09.516Z,15.87
2018-07-10T21:23:46.748Z,15.83
2018-07-10T21:26:22.671Z,15.81
2018-07-10T21:28:53.595Z,15.79
2018-07-10T21:31:35.753Z,15.80
2018-07-10T21:34:09.270Z,15.78
2018-07-10T21:38:53.975Z,15.73
2018-07-10T21:41:59.900Z,15.55
2018-07-10T21:45:58.811Z,15.48
2018-07-10T21:48:40.482Z,15.40
2018-07-10T21:51:08.182Z,15.38
2018-07-10T21:53:35.835Z,15.37
2018-07-10T21:56:03.615Z,15.37
2018-07-10T21:58:31.618Z,15.35
2018-07-10T22:02:04.502Z,15.33
2018-07-10T22:04:34.530Z,15.26
2018-07-10T22:07:03.542Z,15.23
2018-07-10T22:09:33.457Z,15.26
2018-07-10T22:12:06.099Z,15.34
2018-07-10T22:14:33.770Z,15.35
2018-07-10T22:17:02.762Z,15.33
2018-07-10T22:19:32.515Z,15.32
2018-07-10T22:22:00.150Z,15.37
2018-07-10T22:24:27.819Z,15.36
2018-07-10T22:26:56.794Z,15.38
2018-07-10T22:29:30.110Z,15.37
2018-07-10T22:32:00.194Z,15.33
2018-07-10T22:34:28.796Z,15.28
2018-07-10T22:36:56.880Z,15.26
2018-07-10T22:39:24.570Z,15.23
2018-07-10T22:41:53.604Z,15.24
2018-07-10T22:44:23.842Z,15.22
2018-07-10T22:46:53.401Z,15.20
2018-07-10T22:49:21.054Z,15.22
2018-07-10T22:51:48.707Z,15.21
2018-07-10T22:54:16.412Z,15.22
2018-07-10T22:56:44.031Z,15.21
2018-07-10T22:59:11.699Z,15.15
2018-07-10T23:01:39.332Z,15.15
2018-07-10T23:04:06.980Z,15.14
2018-07-10T23:06:36.155Z,15.19
2018-07-10T23:09:04.002Z,15.20
2018-07-10T23:11:31.690Z,15.18
2018-07-10T23:13:59.376Z,15.18
2018-07-10T23:16:27.553Z,15.21
2018-07-10T23:18:55.203Z,15.19
2018-07-10T23:21:23.051Z,15.16
2018-07-10T23:23:51.118Z,15.13
2018-07-10T23:26:19.022Z,15.10
2018-07-10T23:28:51.274Z,15.08
2018-07-10T23:31:18.940Z,15.06
2018-07-10T23:33:50.668Z,15.02
2018-07-10T23:36:18.333Z,15.04
2018-07-10T23:38:54.289Z,15.04
2018-07-10T23:41:31.555Z,15.01
2018-07-10T23:43:59.753Z,14.97
2018-07-10T23:46:35.050Z,14.98
2018-07-10T23:49:10.231Z,14.98
2018-07-10T23:51:49.555Z,14.98
2018-07-10T23:54:17.245Z,14.96
2018-07-10T23:56:44.930Z,14.92
2018-07-10T23:59:12.520Z,14.92
